createdAt,value
2023-05-16T00:00:58.132Z,89.45
2023-05-16T00:06:09.062Z,89.25
2023-05-16T00:11:01.489Z,90.20
2023-05-16T00:16:01.393Z,90.06
2023-05-16T00:21:01.394Z,91.02
2023-05-16T00:26:01.274Z,91.43
2023-05-16T00:31:01.211Z,92.45
2023-05-16T00:36:01.132Z,93.16
2023-05-16T00:41:01.068Z,93.31
2023-05-16T00:46:01.104Z,94.84
2023-05-16T00:51:00.945Z,95.04
2023-05-16T00:56:00.899Z,95.96
2023-05-16T01:01:00.858Z,96.17
2023-05-16T01:06:00.748Z,95.96
2023-05-16T01:11:00.708Z,96.47
2023-05-16T01:16:00.623Z,96.98
2023-05-16T01:21:00.564Z,96.31
2023-05-16T01:26:00.482Z,97.19
2023-05-16T01:31:01.270Z,96.31
2023-05-16T01:36:00.352Z,96.62
2023-05-16T01:41:00.321Z,97.95
2023-05-16T01:46:00.195Z,97.54
2023-05-16T01:51:00.158Z,98.40
2023-05-16T01:56:00.094Z,99.02
2023-05-16T02:01:00.080Z,99.47
2023-05-16T02:06:00.004Z,99.98
2023-05-16T02:10:59.887Z,99.99
2023-05-16T02:15:59.827Z,99.78
2023-05-16T02:20:59.756Z,99.99
2023-05-16T02:25:59.681Z,98.86
2023-05-16T02:30:59.706Z,99.99
2023-05-16T02:35:59.536Z,99.99
2023-05-16T02:40:59.492Z,99.99
2023-05-16T02:45:59.448Z,99.99
2023-05-16T02:50:59.344Z,99.99
2023-05-16T02:55:59.290Z,99.99
2023-05-16T03:00:59.213Z,99.99
2023-05-16T03:05:59.141Z,99.82
2023-05-16T03:10:59.112Z,99.99
2023-05-16T03:15:59.055Z,99.99
2023-05-16T03:20:58.955Z,99.99
2023-05-16T03:25:58.888Z,99.93
2023-05-16T03:30:58.823Z,99.99
2023-05-16T03:35:58.745Z,99.99
2023-05-16T03:40:58.690Z,99.82
2023-05-16T03:45:58.679Z,99.01
2023-05-16T03:50:58.650Z,99.31
2023-05-16T03:55:58.520Z,99.99
2023-05-16T04:00:58.429Z,99.56
2023-05-16T04:05:58.357Z,99.56
2023-05-16T04:10:58.321Z,99.15
2023-05-16T04:16:07.778Z,99.77
2023-05-16T04:21:00.146Z,99.87
2023-05-16T04:26:00.096Z,98.33
2023-05-16T04:31:00.086Z,98.85
2023-05-16T04:35:59.956Z,98.85
2023-05-16T04:40:59.954Z,98.18
2023-05-16T04:45:59.887Z,97.97
2023-05-16T04:50:59.767Z,97.77
2023-05-16T04:55:59.703Z,98.49
2023-05-16T05:01:01.898Z,98.49
2023-05-16T05:05:59.572Z,98.58
2023-05-16T05:10:59.500Z,98.28
2023-05-16T05:15:59.438Z,98.69
2023-05-16T05:20:59.352Z,98.49
2023-05-16T05:25:59.328Z,98.18
2023-05-16T05:30:59.232Z,96.29
2023-05-16T05:35:59.160Z,95.82
2023-05-16T05:40:59.091Z,95.41
2023-05-16T05:45:59.067Z,95.21
2023-05-16T05:50:58.951Z,94.75
2023-05-16T05:55:58.909Z,95.31
2023-05-16T06:00:58.821Z,94.23
2023-05-16T06:05:58.804Z,94.33
2023-05-16T06:10:58.714Z,93.10
2023-05-16T06:15:58.633Z,94.39
2023-05-16T06:20:58.565Z,92.60
2023-05-16T06:25:58.499Z,92.50
2023-05-16T06:30:58.441Z,91.54
2023-05-16T06:35:58.385Z,91.74
2023-05-16T06:40:58.316Z,92.62
2023-05-16T06:45:58.290Z,89.97
2023-05-16T06:50:58.158Z,92.46
2023-05-16T06:55:58.132Z,91.93
2023-05-16T07:00:58.041Z,93.62
2023-05-16T07:05:58.024Z,94.89
2023-05-16T07:10:57.978Z,94.42
2023-05-16T07:15:57.845Z,94.11
2023-05-16T07:20:57.749Z,94.83
2023-05-16T07:25:57.715Z,94.32
2023-05-16T07:30:57.592Z,91.35
2023-05-16T07:36:07.933Z,91.05
2023-05-16T07:40:58.517Z,88.31
2023-05-16T07:45:57.527Z,86.04
2023-05-16T07:50:57.356Z,84.71
2023-05-16T07:55:57.301Z,81.11
2023-05-16T08:00:57.242Z,77.23
2023-05-16T08:05:57.181Z,71.23
2023-05-16T08:10:57.119Z,78.66
2023-05-16T08:15:57.055Z,74.24
2023-05-16T08:20:56.970Z,61.68
2023-05-16T08:25:56.910Z,60.78
2023-05-16T08:30:56.851Z,58.95
2023-05-16T08:35:56.756Z,56.03
2023-05-16T08:40:56.717Z,57.88
2023-05-16T08:45:56.635Z,66.33
2023-05-16T08:50:56.549Z,69.94
2023-05-16T08:55:56.511Z,65.84
2023-05-16T09:00:56.513Z,56.82
2023-05-16T09:05:56.368Z,51.97
2023-05-16T09:10:56.290Z,53.05
2023-05-16T09:15:56.257Z,56.85
2023-05-16T09:20:56.172Z,57.36
2023-05-16T09:25:56.110Z,49.80
2023-05-16T09:30:56.076Z,49.76
2023-05-16T09:35:55.978Z,46.15
2023-05-16T09:40:55.942Z,39.54
2023-05-16T09:45:55.937Z,44.90
2023-05-16T09:50:55.811Z,52.49
2023-05-16T09:55:55.766Z,53.17
2023-05-16T10:00:55.664Z,55.75
2023-05-16T10:05:55.655Z,46.73
2023-05-16T10:10:55.515Z,41.97
2023-05-16T10:15:55.480Z,39.95
2023-05-16T10:20:55.455Z,43.88
2023-05-16T10:25:55.335Z,47.82
2023-05-16T10:30:55.277Z,42.99
2023-05-16T10:35:55.179Z,43.35
2023-05-16T10:40:55.147Z,48.87
2023-05-16T10:45:55.111Z,46.88
2023-05-16T10:50:54.983Z,42.41
2023-05-16T10:55:54.908Z,49.67
2023-05-16T11:00:55.881Z,53.88
2023-05-16T11:05:54.800Z,51.11
2023-05-16T11:10:54.730Z,47.08
2023-05-16T11:15:54.679Z,49.73
2023-05-16T11:20:54.596Z,47.77
2023-05-16T11:25:54.559Z,42.05
2023-05-16T11:30:54.488Z,44.44
2023-05-16T11:36:01.370Z,40.03
2023-05-16T11:40:55.326Z,44.13
2023-05-16T11:45:54.413Z,43.64
2023-05-16T11:50:54.236Z,45.40
2023-05-16T11:55:55.847Z,45.42
2023-05-16T12:00:55.004Z,50.03
2023-05-16T12:05:54.170Z,48.71
2023-05-16T12:10:53.935Z,46.60
2023-05-16T12:15:53.876Z,45.69
2023-05-16T12:20:53.813Z,45.09
2023-05-16T12:25:53.724Z,45.63
2023-05-16T12:30:53.694Z,45.42
2023-05-16T12:35:53.602Z,40.67
2023-05-16T12:40:53.818Z,44.92
2023-05-16T12:45:53.508Z,48.19
2023-05-16T12:50:53.490Z,47.14
2023-05-16T12:55:53.330Z,49.10
2023-05-16T13:00:53.354Z,46.85
2023-05-16T13:05:53.190Z,44.37
2023-05-16T13:10:53.163Z,45.38
2023-05-16T13:15:53.092Z,45.90
2023-05-16T13:20:53.038Z,46.61
2023-05-16T13:25:53.048Z,46.45
2023-05-16T13:30:52.894Z,43.50
2023-05-16T13:35:53.004Z,48.19
2023-05-16T13:40:53.537Z,47.19
2023-05-16T13:45:52.703Z,48.36
2023-05-16T13:50:52.621Z,47.32
2023-05-16T13:55:52.539Z,49.62
2023-05-16T14:00:52.954Z,46.85
2023-05-16T14:05:52.431Z,46.20
2023-05-16T14:10:52.520Z,47.09
2023-05-16T14:15:52.365Z,49.51
2023-05-16T14:20:52.237Z,50.29
2023-05-16T14:25:52.130Z,48.93
2023-05-16T14:30:52.071Z,52.26
2023-05-16T14:35:52.030Z,48.41
2023-05-16T14:40:51.985Z,52.37
2023-05-16T14:45:51.904Z,51.26
2023-05-16T14:50:51.956Z,46.73
2023-05-16T14:55:51.749Z,49.07
2023-05-16T15:00:51.738Z,48.03
2023-05-16T15:05:51.623Z,50.98
2023-05-16T15:10:51.550Z,49.46
2023-05-16T15:15:51.539Z,49.54
2023-05-16T15:20:51.396Z,49.69
2023-05-16T15:25:51.323Z,48.68
2023-05-16T15:30:51.294Z,49.61
2023-05-16T15:35:51.250Z,49.84
2023-05-16T15:40:58.096Z,47.27
2023-05-16T15:45:52.116Z,51.83
2023-05-16T15:50:51.012Z,50.92
2023-05-16T15:55:50.926Z,52.92
2023-05-16T16:00:50.904Z,51.42
2023-05-16T16:05:50.815Z,53.34
2023-05-16T16:10:50.740Z,55.30
2023-05-16T16:15:50.744Z,52.46
2023-05-16T16:20:50.612Z,52.86
2023-05-16T16:25:50.601Z,53.65
2023-05-16T16:30:50.586Z,53.34
2023-05-16T16:35:50.425Z,53.14
2023-05-16T16:40:50.374Z,55.68
2023-05-16T16:45:50.295Z,54.08
2023-05-16T16:50:50.482Z,53.63
2023-05-16T16:55:50.151Z,57.71
2023-05-16T17:00:50.124Z,55.40
2023-05-16T17:05:49.996Z,57.25
2023-05-16T17:10:49.929Z,60.30
2023-05-16T17:15:49.875Z,60.47
2023-05-16T17:20:49.790Z,60.04
2023-05-16T17:25:49.777Z,59.00
2023-05-16T17:30:49.675Z,56.57
2023-05-16T17:35:49.743Z,55.02
2023-05-16T17:40:49.632Z,56.23
2023-05-16T17:45:49.473Z,54.71
2023-05-16T17:50:49.424Z,56.64
2023-05-16T17:55:50.174Z,58.92
2023-05-16T18:00:49.633Z,56.72
2023-05-16T18:05:49.256Z,56.87
2023-05-16T18:10:52.017Z,60.49
2023-05-16T18:15:49.099Z,60.38
2023-05-16T18:20:49.112Z,61.22
2023-05-16T18:25:49.060Z,60.75
2023-05-16T18:30:48.972Z,62.74
2023-05-16T18:35:49.470Z,64.37
2023-05-16T18:40:48.815Z,65.83
2023-05-16T18:45:48.884Z,66.16
2023-05-16T18:50:48.615Z,67.11
2023-05-16T18:55:48.703Z,65.31
2023-05-16T19:00:48.493Z,67.76
2023-05-16T19:05:48.629Z,67.35
2023-05-16T19:10:48.332Z,67.58
2023-05-16T19:15:48.310Z,68.09
2023-05-16T19:20:48.267Z,69.15
2023-05-16T19:25:48.186Z,69.76
2023-05-16T19:30:48.119Z,70.17
2023-05-16T19:35:48.109Z,70.00
2023-05-16T19:40:47.933Z,71.01
2023-05-16T19:45:47.918Z,73.68
2023-05-16T19:50:47.846Z,70.20
2023-05-16T19:55:47.792Z,69.59
2023-05-16T20:00:47.654Z,71.12
2023-05-16T20:05:47.641Z,70.64
2023-05-16T20:10:47.510Z,69.62
2023-05-16T20:15:47.502Z,71.46
2023-05-16T20:20:47.399Z,71.87
2023-05-16T20:25:47.422Z,72.07
2023-05-16T20:30:47.286Z,73.20
2023-05-16T20:35:47.285Z,73.10
2023-05-16T20:40:47.153Z,74.56
2023-05-16T20:45:47.088Z,76.50
2023-05-16T20:50:47.016Z,77.05
2023-05-16T20:55:46.996Z,75.62
2023-05-16T21:00:46.894Z,77.42
2023-05-16T21:05:46.899Z,76.09
2023-05-16T21:10:46.752Z,76.26
2023-05-16T21:15:46.684Z,75.85
2023-05-16T21:20:46.741Z,75.45
2023-05-16T21:25:46.597Z,75.75
2023-05-16T21:30:46.513Z,76.23
2023-05-16T21:35:46.576Z,77.25
2023-05-16T21:40:46.359Z,74.63
2023-05-16T21:45:46.321Z,75.75
2023-05-16T21:50:46.340Z,77.86
2023-05-16T21:55:46.160Z,78.68
2023-05-16T22:00:46.240Z,77.66
2023-05-16T22:05:46.121Z,78.27
2023-05-16T22:10:46.050Z,76.03
2023-05-16T22:15:52.112Z,78.17
2023-05-16T22:20:46.818Z,75.65
2023-05-16T22:25:45.782Z,78.31
2023-05-16T22:30:45.708Z,77.83
2023-05-16T22:35:45.689Z,80.02
2023-05-16T22:40:45.627Z,79.64
2023-05-16T22:45:45.562Z,83.06
2023-05-16T22:50:45.438Z,84.27
2023-05-16T22:55:45.421Z,84.47
2023-05-16T23:00:45.345Z,85.33
2023-05-16T23:05:45.232Z,85.68
2023-05-16T23:10:45.190Z,86.09
2023-05-16T23:15:45.142Z,87.67
2023-05-16T23:20:45.727Z,88.33
2023-05-16T23:25:44.986Z,88.84
2023-05-16T23:30:44.970Z,88.89
2023-05-16T23:35:44.903Z,89.40
2023-05-16T23:40:44.769Z,89.29
2023-05-16T23:45:44.712Z,88.89
2023-05-16T23:50:44.670Z,88.57
2023-05-16T23:55:44.574Z,88.57
